»·PEaware :: N210AE KEKO-KRKS

N210AE :: KEKO-KRKS

FLIGHT INFORMATION

Flight Status: Arrived
Operator: Privately registered:
United States
More flights under this callsign
Pilot: Alexander E. (16050)
Aircraft: CESSNA T210 TURBO CENTURION
(T210)
More flights by this aircraft type
Origin: KEKO Elko Regl
United States
Destination: KRKS Rock Springs-Sweetwater
United States
More flights between these airports :: More routes between these airports
Route: MUNDO V465 LWL V6 OCS
File this flight plan on PilotEdge
Remarks:
Altitude:
(Current/Filed)
17,500ft
Speed:
(Current/Filed)
180kts
Departed: 17-Jan-19 06:58 AM
Arrived: 17-Jan-19 08:18 AM
Distance/Time
Traveled:
307nm/1:20
Distance/Time
To Go:
Arrived

Flight Plot

Page will automatically refresh every two minutes.

Flight plan parsing failed; only flown route is shown


Map Options




Map Legend


Flown Route
Filed Route
Departure Airport
Arrival Airport
Navaid (VOR, NDB)
Fix

Horizontal Profiles

Position Reports

Time Latitude Longitude Heading Altitude Ground
Speed
17-Jan-19 06:57 40.920335 -115.468922 77 12009ft 150kts
17-Jan-19 06:57 40.936712 -115.427714 76 12632ft 154kts
17-Jan-19 06:58 40.957240 -115.376159 75 13412ft 162kts
17-Jan-19 06:59 40.978659 -115.322307 74 14171ft 168kts
17-Jan-19 07:00 41.003253 -115.268120 66 14905ft 176kts
17-Jan-19 07:01 41.030129 -115.213237 65 15642ft 179kts
17-Jan-19 07:02 41.057034 -115.158329 63 16367ft 182kts
17-Jan-19 07:03 41.084709 -115.101714 63 17104ft 183kts
17-Jan-19 07:04 41.112670 -115.044111 61 17509ft 203kts
17-Jan-19 07:05 41.144796 -114.975364 73 17499ft 228kts
17-Jan-19 07:06 41.160950 -114.894129 82 17498ft 230kts
17-Jan-19 07:07 41.177658 -114.811222 82 17498ft 235kts
17-Jan-19 07:08 41.194188 -114.726917 82 17499ft 237kts
17-Jan-19 07:09 41.210753 -114.641827 82 17497ft 238kts
17-Jan-19 07:10 41.227255 -114.556683 82 17493ft 239kts
17-Jan-19 07:11 41.243752 -114.471195 82 17487ft 239kts
17-Jan-19 07:12 41.260092 -114.385511 83 17485ft 239kts
17-Jan-19 07:13 41.276069 -114.301814 83 17477ft 238kts
17-Jan-19 07:14 41.292289 -114.216647 83 17478ft 237kts
17-Jan-19 07:15 41.308435 -114.131458 83 17485ft 237kts
17-Jan-19 07:16 41.324448 -114.046602 83 17493ft 237kts
17-Jan-19 07:17 41.340440 -113.961493 83 17498ft 237kts
17-Jan-19 07:18 41.356457 -113.875874 83 17499ft 238kts
17-Jan-19 07:19 41.359359 -113.792073 106 17500ft 224kts
17-Jan-19 07:20 41.353539 -113.709196 107 17500ft 224kts
17-Jan-19 07:21 41.347484 -113.626479 107 17500ft 224kts
17-Jan-19 07:23 41.340303 -113.529834 107 17501ft 225kts
17-Jan-19 07:23 41.335147 -113.461019 107 17516ft 224kts
17-Jan-19 07:24 41.328895 -113.378410 107 17543ft 224kts
17-Jan-19 07:25 41.323713 -113.310510 107 17535ft 225kts
17-Jan-19 07:26 41.317313 -113.227399 107 17483ft 224kts
17-Jan-19 07:27 41.310933 -113.145244 107 17497ft 223kts
17-Jan-19 07:28 41.304493 -113.063322 107 17506ft 222kts
17-Jan-19 07:29 41.297996 -112.981344 107 17512ft 222kts
17-Jan-19 07:30 41.291456 -112.899519 107 17518ft 222kts
17-Jan-19 07:31 41.284865 -112.817761 106 17524ft 222kts
17-Jan-19 07:32 41.278237 -112.736337 106 17526ft 221kts
17-Jan-19 07:33 41.271535 -112.654740 106 17526ft 222kts
17-Jan-19 07:34 41.264783 -112.573353 107 17516ft 223kts
17-Jan-19 07:35 41.257890 -112.490872 107 17516ft 224kts
17-Jan-19 07:36 41.250972 -112.408711 107 17518ft 224kts
17-Jan-19 07:37 41.243975 -112.326410 108 17513ft 224kts
17-Jan-19 07:38 41.236962 -112.244557 108 17514ft 222kts
17-Jan-19 07:39 41.229873 -112.162727 108 17514ft 222kts
17-Jan-19 07:40 41.225902 -112.080343 92 17516ft 232kts
17-Jan-19 07:41 41.234273 -111.995203 91 17516ft 233kts
17-Jan-19 07:42 41.242793 -111.909975 91 17516ft 233kts
17-Jan-19 07:43 41.251150 -111.824521 91 17517ft 233kts
17-Jan-19 07:44 41.259439 -111.738955 91 17517ft 233kts
17-Jan-19 07:45 41.267654 -111.653465 91 17518ft 233kts
17-Jan-19 07:46 41.275818 -111.567838 91 17521ft 233kts
17-Jan-19 07:47 41.283938 -111.481973 91 17531ft 233kts
17-Jan-19 07:48 41.291956 -111.396473 91 17542ft 234kts
17-Jan-19 07:49 41.299936 -111.310647 92 17541ft 233kts
17-Jan-19 07:50 41.307819 -111.225120 92 17508ft 234kts
17-Jan-19 07:51 41.315641 -111.139685 92 17506ft 232kts
17-Jan-19 07:52 41.323412 -111.053956 91 17507ft 233kts
17-Jan-19 07:53 41.331143 -110.967894 89 17507ft 236kts
17-Jan-19 07:54 41.338909 -110.880807 87 17509ft 238kts
17-Jan-19 07:55 41.346657 -110.793223 87 17518ft 239kts
17-Jan-19 07:56 41.354344 -110.705506 87 17529ft 239kts
17-Jan-19 07:57 41.362012 -110.617196 87 17538ft 239kts
17-Jan-19 07:58 41.369582 -110.529190 87 17539ft 240kts
17-Jan-19 07:59 41.377117 -110.440869 87 17540ft 240kts
17-Jan-19 08:00 41.389685 -110.352882 81 17541ft 242kts
17-Jan-19 08:01 41.403362 -110.265039 81 17533ft 241kts
17-Jan-19 08:02 41.417286 -110.174858 81 17061ft 255kts
17-Jan-19 08:03 41.431532 -110.082375 81 16462ft 255kts
17-Jan-19 08:04 41.445658 -109.990070 81 15662ft 253kts
17-Jan-19 08:05 41.459597 -109.898705 81 14860ft 249kts
17-Jan-19 08:06 41.473150 -109.809375 81 14062ft 243kts
17-Jan-19 08:07 41.486329 -109.721999 81 13269ft 238kts
17-Jan-19 08:08 41.499153 -109.636402 81 12478ft 232kts
17-Jan-19 08:09 41.511612 -109.552884 81 11693ft 227kts
17-Jan-19 08:10 41.523657 -109.471675 79 10907ft 218kts
17-Jan-19 08:11 41.535103 -109.394152 77 10123ft 208kts
17-Jan-19 08:12 41.550928 -109.321807 60 9329ft 199kts
17-Jan-19 08:13 41.580245 -109.261170 50 8520ft 191kts
17-Jan-19 08:14 41.608431 -109.202063 63 7709ft 189kts
17-Jan-19 08:15 41.606989 -109.134983 102 7485ft 170kts
17-Jan-19 08:16 41.597869 -109.083476 99 6790ft 112kts
17-Jan-19 08:17 41.593803 -109.060349 92 6748ft 22kts
17-Jan-19 08:18 41.594036 -109.055426 303 6754ft 10kts
17-Jan-19 08:19 41.594782 -109.059405 282 6749ft 16kts
17-Jan-19 08:20 41.595578 -109.063784 282 6745ft 9kts
17-Jan-19 08:21 41.596911 -109.067461 25 6739ft 15kts
17-Jan-19 08:22 41.598786 -109.064251 43 6738ft 9kts
17-Jan-19 08:23 41.599207 -109.064067 314 6737ft 0kts
17-Jan-19 08:24 41.599207 -109.064067 314 6737ft 0kts
17-Jan-19 08:25 41.599207 -109.064067 314 6737ft 0kts
17-Jan-19 08:26 41.599207 -109.064067 314 6737ft 0kts
17-Jan-19 08:27 41.599207 -109.064067 314 6737ft 0kts
17-Jan-19 08:28 41.599207 -109.064067 314 6737ft 0kts
17-Jan-19 08:29 41.599207 -109.064067 314 6737ft 0kts
17-Jan-19 08:30 41.599207 -109.064067 314 6737ft 0kts
17-Jan-19 08:31 41.599207 -109.064067 314 6737ft 0kts

Navigation Log

Ident Type
Flight plan parsing failed, navigation log unavailable